This is the latest recevied weather packets stored in our database for station/object SQ7IQO. If no packets are shown the sender has not sent any weather packets the latest 10 day(s).
| Time | Temp. | Humidity | Pressure | Rain* | Wind** | Luminosity | Snow |
|---|---|---|---|---|---|---|---|
| 1788015822 | 23.33° C | 59% | 1015.5 hPa | 0 mm | 0.89 m/s, ° | - | - |
| 1788015762 | 23.33° C | 58% | 1015.4 hPa | 0 mm | 1.79 m/s, ° | - | - |
| 1788015702 | 23.33° C | 59% | 1015.4 hPa | 0 mm | 1.34 m/s, ° | - | - |
| 1788015642 | 23.33° C | 59% | 1015.5 hPa | 0 mm | 1.34 m/s, ° | - | - |
| 1788015582 | 23.33° C | 58% | 1015.4 hPa | 0 mm | 1.34 m/s, ° | - | - |
| 1788015522 | 23.33° C | 59% | 1015.5 hPa | 0 mm | 1.79 m/s, ° | - | - |
| 1788015462 | 23.89° C | 58% | 1015.4 hPa | 0 mm | 1.79 m/s, ° | - | - |
| 1788015402 | 23.89° C | 58% | 1015.6 hPa | 0 mm | 1.79 m/s, ° | - | - |
| 1788015342 | 24.44° C | 57% | 1015.5 hPa | 0 mm | 1.34 m/s, ° | - | - |
| 1788015282 | 24.44° C | 59% | - | 0 mm | 0.89 m/s, ° | - | - |
| 1788015222 | 23.89° C | 60% | 1015.4 hPa | 0 mm | 0.45 m/s, ° | - | - |
| 1788015162 | 23.89° C | 59% | 1015.4 hPa | 0 mm | 0.89 m/s, ° | - | - |
| 1788015102 | 23.89° C | 59% | 1015.5 hPa | 0 mm | 0.45 m/s, ° | - | - |
| 1788015042 | 24.44° C | 58% | - | 0 mm | 0.89 m/s, ° | - | - |
| 1788014982 | 24.44° C | 57% | 1608.9 hPa | 0 mm | 0.89 m/s, ° | - | - |
| 1788014922 | 25° C | 57% | 1015.4 hPa | 0 mm | 0.89 m/s, ° | - | - |
| 1788014862 | 24.44° C | 58% | 1015.4 hPa | 0 mm | 0 m/s | - | - |
| 1788014802 | 24.44° C | 58% | 1015.4 hPa | 0 mm | 0.89 m/s, ° | - | - |
| 1788014742 | 24.44° C | 58% | 1015.4 hPa | 0 mm | 0.45 m/s, ° | - | - |
| 1788014682 | 23.89° C | 60% | - | 0 mm | 0.45 m/s, ° | - | - |
| 1788014622 | 23.89° C | 58% | 1015.5 hPa | 0 mm | 0.45 m/s, ° | - | - |
| 1788014562 | 24.44° C | 57% | 1015.5 hPa | 0 mm | 1.34 m/s, ° | - | - |
| 1788014502 | 24.44° C | 58% | - | 0 mm | 0.89 m/s, ° | - | - |
| 1788014442 | 24.44° C | 58% | 1015.5 hPa | 0 mm | 0.89 m/s, ° | - | - |
| 1788014382 | 23.89° C | 60% | 1015.5 hPa | 0 mm | 0.89 m/s, ° | - | - |
* Rain latest hour (hover to see other rain measurements)
** Current wind speed in m/s (hover to see current wind gust speed)